Time;durP1;ratioP1;P1;durP2;ratioP2;P2;SDS_P1;SDS_P2;PMS_P1;PMS_P2;Temp;Humidity;BMP_temperature;BMP_pressure;BME280_temperature;BME280_humidity;BME280_pressure;Samples;Min_cycle;Max_cycle;Signal;HPM_P1;HPM_P2
2021/10/05 00:01:10;;;;;;;18.88;10.73;;;359.20;2329.60;;;;;;4994047;28;20026;-78
2021/10/05 00:03:36;;;;;;;18.08;10.30;;;359.20;2329.60;;;;;;4994285;28;20084;-76
2021/10/05 00:06:03;;;;;;;18.17;10.48;;;359.20;2329.60;;;;;;4994057;28;20026;-76
2021/10/05 00:08:29;;;;;;;17.83;10.73;;;359.20;2329.60;;;;;;4994061;28;20018;-75
2021/10/05 00:10:55;;;;;;;18.17;10.27;;;359.10;2329.60;;;;;;4993889;28;20498;-76
2021/10/05 00:13:21;;;;;;;15.15;10.25;;;359.10;2329.60;;;;;;4993881;28;20030;-77
2021/10/05 00:15:48;;;;;;;15.30;9.27;;;359.10;2329.60;;;;;;4994279;28;20387;-76
2021/10/05 00:18:14;;;;;;;18.92;11.00;;;359.30;2329.60;;;;;;4993833;28;20498;-77
2021/10/05 00:20:39;;;;;;;16.90;10.85;;;359.00;2329.60;;;;;;4993113;28;20039;-76
2021/10/05 00:23:05;;;;;;;18.00;10.57;;;359.00;2329.60;;;;;;4993803;28;20098;-76
2021/10/05 00:25:31;;;;;;;17.17;10.98;;;359.00;2329.60;;;;;;4994094;28;20026;-76
2021/10/05 00:27:57;;;;;;;15.75;11.52;;;358.90;2329.60;;;;;;4994141;28;20031;-76
2021/10/05 00:30:23;;;;;;;20.50;11.23;;;358.90;2329.60;;;;;;4993787;28;20058;-80
2021/10/05 00:32:48;;;;;;;18.17;10.45;;;358.90;2329.60;;;;;;4993979;28;20030;-81
2021/10/05 00:35:14;;;;;;;19.77;11.23;;;358.90;2329.60;;;;;;4993261;28;20060;-76
2021/10/05 00:37:40;;;;;;;16.88;11.45;;;358.90;2329.60;;;;;;4993798;28;20041;-77
2021/10/05 00:40:07;;;;;;;18.77;11.07;;;358.90;2329.60;;;;;;4993888;28;20018;-80
2021/10/05 00:42:33;;;;;;;15.50;10.32;;;358.80;2329.60;;;;;;4992655;28;20026;-77
2021/10/05 00:44:59;;;;;;;19.80;11.40;;;358.80;2329.60;;;;;;4993539;28;20033;-76
2021/10/05 00:47:25;;;;;;;19.75;10.90;;;358.80;2329.60;;;;;;4993874;28;20031;-77
2021/10/05 00:49:50;;;;;;;14.35;9.50;;;358.80;2329.60;;;;;;4993736;28;20041;-77
2021/10/05 00:52:20;;;;;;;20.40;12.65;;;358.80;2329.60;;;;;;4993779;28;20042;-81
2021/10/05 00:54:47;;;;;;;18.67;10.23;;;358.70;2329.60;;;;;;4992239;28;20023;-76
2021/10/05 00:57:13;;;;;;;18.60;11.10;;;358.70;2329.60;;;;;;4993661;28;20069;-75
2021/10/05 00:59:39;;;;;;;17.15;11.18;;;358.70;2329.60;;;;;;4993578;28;20168;-80
2021/10/05 01:02:10;;;;;;;15.88;10.80;;;358.70;2329.60;;;;;;4993537;28;20117;-75
2021/10/05 01:04:36;;;;;;;16.25;10.38;;;358.70;2329.60;;;;;;4993510;28;20511;-75
2021/10/05 01:07:08;;;;;;;18.13;11.75;;;358.70;2329.60;;;;;;4993614;28;20027;-75
2021/10/05 01:09:35;;;;;;;15.52;10.63;;;358.60;2329.60;;;;;;4993633;28;20023;-75
2021/10/05 01:12:01;;;;;;;14.98;10.43;;;358.60;2329.60;;;;;;4993459;28;20030;-77
2021/10/05 01:14:27;;;;;;;15.02;9.93;;;358.50;2329.60;;;;;;4993393;28;20069;-75
2021/10/05 01:16:56;;;;;;;16.25;10.10;;;358.50;2329.60;;;;;;4992252;28;20026;-75
2021/10/05 01:19:22;;;;;;;13.55;9.23;;;358.40;2329.60;;;;;;4993669;28;20486;-75
2021/10/05 01:21:48;;;;;;;16.75;10.38;;;358.40;2329.60;;;;;;4993378;28;20023;-75
2021/10/05 01:24:18;;;;;;;18.00;11.77;;;358.40;2329.60;;;;;;4993500;28;20041;-76
2021/10/05 01:26:44;;;;;;;22.23;10.63;;;358.40;2329.60;;;;;;4992201;28;20467;-78
2021/10/05 01:29:12;;;;;;;18.30;12.52;;;333.70;2329.60;;;;;;4993060;28;20041;-75
2021/10/05 01:31:42;;;;;;;18.42;10.57;;;333.70;2329.60;;;;;;4993117;28;20095;-75
2021/10/05 01:34:09;;;;;;;14.85;9.50;;;333.70;2329.60;;;;;;4992891;28;20106;-77
2021/10/05 01:36:35;;;;;;;15.98;9.52;;;333.70;2329.60;;;;;;4993127;28;20398;-75
2021/10/05 01:39:06;;;;;;;20.55;11.30;;;333.70;2329.60;;;;;;4993342;28;20037;-76
2021/10/05 01:41:32;;;;;;;18.02;10.30;;;333.70;2329.60;;;;;;4993180;28;20030;-76
2021/10/05 01:43:58;;;;;;;18.50;11.75;;;333.70;2329.60;;;;;;4992728;28;20465;-76
2021/10/05 01:46:24;;;;;;;20.05;10.15;;;333.60;2329.60;;;;;;4993602;28;20022;-76
2021/10/05 01:48:50;;;;;;;20.35;12.18;;;333.60;2329.60;;;;;;4995186;28;20022;-75
2021/10/05 01:51:16;;;;;;;18.60;10.52;;;333.60;2329.60;;;;;;4995275;28;20085;-75
2021/10/05 01:53:41;;;;;;;16.52;11.23;;;333.60;2329.60;;;;;;4996689;28;20029;-81
2021/10/05 01:56:08;;;;;;;17.15;11.77;;;333.60;2329.60;;;;;;4996740;28;20045;-75
2021/10/05 01:58:34;;;;;;;21.35;12.77;;;333.60;2329.60;;;;;;4996067;28;20054;-75
2021/10/05 02:01:01;;;;;;;15.23;10.93;;;333.60;2329.60;;;;;;4996531;28;20430;-77
2021/10/05 02:03:28;;;;;;;16.98;10.43;;;333.50;2329.60;;;;;;4996393;28;20502;-75
2021/10/05 02:05:53;;;;;;;15.60;11.07;;;333.50;2329.60;;;;;;4996323;28;20099;-75
2021/10/05 02:08:19;;;;;;;16.40;10.07;;;333.50;2329.60;;;;;;4996103;28;20030;-76
2021/10/05 02:10:45;;;;;;;19.13;10.18;;;333.50;2329.60;;;;;;4996276;28;20042;-75
2021/10/05 02:13:11;;;;;;;17.50;12.25;;;333.40;2329.60;;;;;;4996257;28;20030;-75
2021/10/05 02:15:38;;;;;;;15.10;11.05;;;333.40;2329.60;;;;;;4996215;28;20105;-76
2021/10/05 02:18:05;;;;;;;15.85;10.70;;;333.30;2329.60;;;;;;4996105;28;20463;-75
2021/10/05 02:20:31;;;;;;;15.00;10.35;;;333.20;2329.60;;;;;;4996317;28;20018;-75
2021/10/05 02:22:58;;;;;;;18.15;10.00;;;333.20;2329.60;;;;;;4995745;28;20026;-81
2021/10/05 02:25:27;;;;;;;21.70;11.65;;;333.20;2329.60;;;;;;4995897;28;20471;-75
2021/10/05 02:27:53;;;;;;;18.33;10.85;;;333.20;2329.60;;;;;;4995772;28;20026;-76
2021/10/05 02:30:19;;;;;;;15.38;9.35;;;333.10;2329.60;;;;;;4995654;28;20030;-75
2021/10/05 02:32:45;;;;;;;17.63;11.05;;;333.10;2329.60;;;;;;4995768;28;20026;-75
2021/10/05 02:35:11;;;;;;;20.55;11.52;;;333.10;2329.60;;;;;;4995670;28;20475;-74
2021/10/05 02:37:38;;;;;;;15.05;10.63;;;333.10;2329.60;;;;;;4995712;28;20390;-75
2021/10/05 02:40:08;;;;;;;18.27;10.88;;;333.00;2329.60;;;;;;4995734;28;20030;-76
2021/10/05 02:42:35;;;;;;;20.38;12.10;;;332.90;2329.60;;;;;;4995512;28;20026;-75
2021/10/05 02:45:02;;;;;;;16.40;10.77;;;332.90;2329.60;;;;;;4995334;28;20491;-76
2021/10/05 02:47:27;;;;;;;19.30;10.38;;;332.90;2329.60;;;;;;4995531;28;20051;-75
2021/10/05 02:49:53;;;;;;;18.00;10.43;;;332.80;2329.60;;;;;;4995598;28;20030;-75
2021/10/05 02:52:21;;;;;;;18.75;10.45;;;332.80;2329.60;;;;;;4995216;28;20056;-75
2021/10/05 02:54:49;;;;;;;18.77;10.43;;;332.80;2329.60;;;;;;4995395;28;20023;-81
2021/10/05 02:57:17;;;;;;;17.33;10.75;;;332.80;2329.60;;;;;;4994768;28;20022;-75
2021/10/05 02:59:44;;;;;;;14.75;9.82;;;332.80;2329.60;;;;;;4995388;28;20471;-75
2021/10/05 03:02:10;;;;;;;14.27;9.82;;;308.10;2304.00;;;;;;4995140;28;20038;-75
2021/10/05 03:04:37;;;;;;;13.45;9.68;;;308.10;2304.00;;;;;;4995138;28;20424;-74
2021/10/05 03:07:03;;;;;;;16.05;9.60;;;332.80;2329.60;;;;;;4994499;28;20134;-75
2021/10/05 03:09:29;;;;;;;12.20;9.43;;;308.10;2304.00;;;;;;4994850;28;20080;-77
2021/10/05 03:11:54;;;;;;;16.30;9.82;;;308.10;2304.00;;;;;;4994984;28;20042;-78
2021/10/05 03:14:20;;;;;;;12.10;8.35;;;308.10;2304.00;;;;;;4994547;28;20033;-76
2021/10/05 03:16:46;;;;;;;18.52;10.00;;;308.10;2304.00;;;;;;4994574;28;20096;-77
2021/10/05 03:19:12;;;;;;;16.67;9.95;;;308.10;2304.00;;;;;;4994835;28;20080;-78
2021/10/05 03:21:39;;;;;;;13.52;9.93;;;308.10;2304.00;;;;;;4995300;28;20026;-75
2021/10/05 03:24:05;;;;;;;13.43;7.85;;;308.00;2304.00;;;;;;4995230;28;20030;-80
2021/10/05 03:26:31;;;;;;;14.68;10.02;;;308.00;2304.00;;;;;;4995114;28;20133;-77
2021/10/05 03:28:56;;;;;;;15.45;9.05;;;308.00;2304.00;;;;;;4994270;28;20118;-77
2021/10/05 03:31:22;;;;;;;11.70;8.10;;;308.00;2304.00;;;;;;4994675;28;20034;-80
2021/10/05 03:33:48;;;;;;;15.57;9.93;;;308.00;2304.00;;;;;;4993587;28;20084;-80
2021/10/05 03:36:15;;;;;;;12.18;9.50;;;307.90;2304.00;;;;;;4994331;28;20569;-76
2021/10/05 03:38:41;;;;;;;14.98;9.70;;;307.90;2304.00;;;;;;4993409;28;20117;-75
2021/10/05 03:41:07;;;;;;;12.35;8.23;;;307.90;2304.00;;;;;;4994918;28;20027;-75
2021/10/05 03:43:34;;;;;;;16.33;8.35;;;307.90;2304.00;;;;;;4994718;28;20121;-79
2021/10/05 03:45:59;;;;;;;12.60;8.77;;;307.90;2304.00;;;;;;4995149;28;20030;-77
2021/10/05 03:48:26;;;;;;;14.43;9.73;;;307.80;2304.00;;;;;;4994638;28;20049;-76
2021/10/05 03:50:53;;;;;;;12.13;8.70;;;307.80;2304.00;;;;;;4994683;28;20026;-75
2021/10/05 03:53:20;;;;;;;18.80;10.68;;;307.80;2304.00;;;;;;4994343;28;20034;-75
2021/10/05 03:55:54;;;;;;;16.52;8.27;;;307.80;2304.00;;;;;;4994253;28;20080;-79
2021/10/05 03:58:21;;;;;;;17.60;9.07;;;307.80;2304.00;;;;;;4993978;28;20105;-75
2021/10/05 04:00:47;;;;;;;14.38;8.82;;;307.70;2304.00;;;;;;4994110;28;20025;-75
2021/10/05 04:03:13;;;;;;;16.88;9.57;;;307.70;2304.00;;;;;;4992632;28;20045;-79
2021/10/05 04:05:39;;;;;;;16.33;9.88;;;307.70;2304.00;;;;;;4994385;28;20066;-75
2021/10/05 04:08:05;;;;;;;16.20;9.32;;;307.70;2304.00;;;;;;4992680;28;20050;-75
2021/10/05 04:10:31;;;;;;;26.67;17.40;;;307.70;2304.00;;;;;;4993414;28;20119;-76
2021/10/05 04:12:57;;;;;;;28.90;15.00;;;307.60;2304.00;;;;;;4993363;28;20050;-80
2021/10/05 04:15:23;;;;;;;16.50;10.38;;;307.60;2304.00;;;;;;4994301;28;20093;-80
2021/10/05 04:17:49;;;;;;;16.73;9.90;;;307.60;2304.00;;;;;;4994269;28;20041;-79
2021/10/05 04:20:15;;;;;;;15.73;10.13;;;307.60;2304.00;;;;;;4995297;28;20036;-79
2021/10/05 04:22:41;;;;;;;14.57;9.52;;;307.60;2304.00;;;;;;4995354;28;20038;-82
2021/10/05 04:25:08;;;;;;;15.13;9.88;;;307.60;2304.00;;;;;;4996081;28;20054;-82
2021/10/05 04:27:35;;;;;;;18.95;10.60;;;307.60;2304.00;;;;;;4997847;28;20029;-76
2021/10/05 04:30:00;;;;;;;16.20;9.20;;;307.60;2304.00;;;;;;4995811;28;20049;-77
2021/10/05 04:32:27;;;;;;;13.27;8.98;;;307.60;2304.00;;;;;;4994665;28;20121;-77
2021/10/05 04:34:52;;;;;;;13.73;9.55;;;307.70;2304.00;;;;;;4994454;28;20054;-76
2021/10/05 04:37:18;;;;;;;16.77;9.90;;;307.50;2304.00;;;;;;4994066;28;20034;-76
2021/10/05 04:39:44;;;;;;;19.75;11.15;;;307.40;2304.00;;;;;;4993814;28;20030;-76
2021/10/05 04:42:09;;;;;;;19.30;10.85;;;307.40;2304.00;;;;;;4993218;28;20026;-76
2021/10/05 04:44:36;;;;;;;16.48;10.32;;;307.40;2304.00;;;;;;4993377;28;20034;-76
2021/10/05 04:47:02;;;;;;;17.75;11.25;;;307.40;2304.00;;;;;;4993452;28;20014;-76
2021/10/05 04:49:28;;;;;;;17.00;10.88;;;307.40;2304.00;;;;;;4992877;28;20030;-76
2021/10/05 04:51:53;;;;;;;17.08;9.60;;;307.40;2304.00;;;;;;4992167;28;20498;-76
2021/10/05 04:54:19;;;;;;;15.13;9.90;;;307.40;2304.00;;;;;;4993451;28;20026;-76
2021/10/05 04:56:45;;;;;;;16.08;10.95;;;307.40;2304.00;;;;;;4993435;28;20034;-75
2021/10/05 04:59:11;;;;;;;16.30;10.80;;;307.40;2304.00;;;;;;4993199;28;20030;-75
2021/10/05 05:01:37;;;;;;;19.75;10.32;;;307.30;2304.00;;;;;;4993508;28;20033;-75
2021/10/05 05:04:03;;;;;;;15.82;10.82;;;307.30;2304.00;;;;;;4993454;28;20491;-75
2021/10/05 05:06:29;;;;;;;15.50;10.13;;;307.40;2304.00;;;;;;4992729;28;20034;-77
2021/10/05 05:08:54;;;;;;;17.60;10.40;;;307.30;2304.00;;;;;;4993243;28;20064;-75
2021/10/05 05:11:20;;;;;;;16.33;9.98;;;307.30;2304.00;;;;;;4992770;28;20038;-75
2021/10/05 05:13:46;;;;;;;14.45;10.55;;;307.30;2304.00;;;;;;4993309;28;20474;-79
2021/10/05 05:16:12;;;;;;;14.57;10.07;;;307.30;2304.00;;;;;;4992513;28;20425;-77
2021/10/05 05:18:38;;;;;;;16.83;11.50;;;307.20;2304.00;;;;;;4993189;28;20065;-76
2021/10/05 05:21:04;;;;;;;17.45;10.25;;;307.20;2304.00;;;;;;4993657;28;20033;-74
2021/10/05 05:23:30;;;;;;;16.23;10.98;;;307.20;2304.00;;;;;;4996336;28;20053;-78
2021/10/05 05:25:56;;;;;;;19.08;12.90;;;282.50;2278.40;;;;;;4997302;28;20113;-76
2021/10/05 05:28:21;;;;;;;22.00;13.27;;;282.40;2278.40;;;;;;4996677;28;20026;-79
2021/10/05 05:30:47;;;;;;;22.67;12.98;;;282.30;2278.40;;;;;;4997153;28;20117;-81
2021/10/05 05:33:13;;;;;;;25.52;13.77;;;282.40;2278.40;;;;;;4996851;28;20395;-81
2021/10/05 05:35:39;;;;;;;26.48;14.10;;;282.40;2278.40;;;;;;4996733;28;20521;-76
2021/10/05 05:38:04;;;;;;;23.00;14.40;;;282.50;2278.40;;;;;;4996912;28;20042;-80
2021/10/05 05:40:30;;;;;;;23.00;14.82;;;282.50;2278.40;;;;;;4997006;28;20057;-79
2021/10/05 05:42:56;;;;;;;21.05;14.18;;;307.20;2304.00;;;;;;4996871;28;20415;-81
2021/10/05 05:45:22;;;;;;;21.52;13.05;;;307.30;2304.00;;;;;;4996861;28;20081;-76
2021/10/05 05:47:47;;;;;;;19.38;11.98;;;307.30;2304.00;;;;;;4997547;28;20106;-76
2021/10/05 05:50:13;;;;;;;20.58;10.38;;;307.30;2304.00;;;;;;5000223;28;20030;-75
2021/10/05 05:52:39;;;;;;;16.83;10.52;;;307.40;2304.00;;;;;;4996671;28;20114;-75
2021/10/05 05:55:06;;;;;;;16.13;9.73;;;307.50;2304.00;;;;;;4996737;28;20383;-75
2021/10/05 05:57:31;;;;;;;15.55;9.88;;;307.50;2304.00;;;;;;4996338;28;20057;-75
2021/10/05 05:59:58;;;;;;;18.92;10.25;;;307.60;2304.00;;;;;;4996284;28;20471;-77
2021/10/05 06:02:24;;;;;;;16.60;10.32;;;307.60;2304.00;;;;;;4998118;28;20052;-79
2021/10/05 06:04:50;;;;;;;21.05;10.23;;;307.70;2304.00;;;;;;5000405;28;20447;-79
2021/10/05 06:07:16;;;;;;;18.27;12.05;;;307.70;2304.00;;;;;;4996569;28;20073;-80
2021/10/05 06:09:41;;;;;;;19.98;11.10;;;307.70;2304.00;;;;;;4996638;28;20428;-80
2021/10/05 06:12:12;;;;;;;17.13;10.98;;;307.70;2304.00;;;;;;4996186;28;20114;-80
2021/10/05 06:14:39;;;;;;;18.48;11.27;;;307.70;2304.00;;;;;;4995345;28;20483;-81
2021/10/05 06:17:06;;;;;;;23.48;14.85;;;307.70;2304.00;;;;;;4996378;28;20057;-80
2021/10/05 06:19:33;;;;;;;17.70;11.60;;;307.70;2304.00;;;;;;4996739;28;20022;-78
2021/10/05 06:21:59;;;;;;;17.52;11.40;;;307.80;2304.00;;;;;;4996410;28;20554;-79
2021/10/05 06:24:24;;;;;;;19.50;12.57;;;307.80;2304.00;;;;;;4996970;28;20054;-82
2021/10/05 06:26:50;;;;;;;20.95;12.82;;;307.90;2304.00;;;;;;4995992;28;20031;-79
2021/10/05 06:29:16;;;;;;;17.92;11.15;;;308.10;2304.00;;;;;;4995935;28;20050;-79
2021/10/05 06:31:42;;;;;;;15.65;11.30;;;308.10;2304.00;;;;;;4996145;28;20034;-80
2021/10/05 06:34:07;;;;;;;17.80;10.80;;;332.80;2329.60;;;;;;4995877;28;20027;-78
2021/10/05 06:36:33;;;;;;;19.65;11.25;;;332.90;2329.60;;;;;;4996235;28;20030;-80
2021/10/05 06:38:59;;;;;;;15.68;10.75;;;332.90;2329.60;;;;;;4996148;28;20101;-77
2021/10/05 06:41:25;;;;;;;17.75;11.15;;;333.00;2329.60;;;;;;4994734;28;20582;-78
2021/10/05 06:43:51;;;;;;;20.27;11.05;;;333.10;2329.60;;;;;;4995510;28;20018;-80
2021/10/05 06:46:17;;;;;;;15.02;11.65;;;333.20;2329.60;;;;;;4995999;28;20387;-81
2021/10/05 06:48:43;;;;;;;19.00;12.15;;;333.20;2329.60;;;;;;4995469;28;20033;-75
2021/10/05 06:51:08;;;;;;;20.23;11.80;;;333.30;2329.60;;;;;;4995617;28;20042;-79
2021/10/05 06:53:35;;;;;;;19.00;10.95;;;333.40;2329.60;;;;;;4995657;28;20041;-81
2021/10/05 06:56:00;;;;;;;17.65;10.45;;;333.40;2329.60;;;;;;4996027;28;20027;-82
2021/10/05 06:58:26;;;;;;;19.27;11.40;;;333.50;2329.60;;;;;;4995860;28;20022;-76
2021/10/05 07:00:52;;;;;;;19.08;11.80;;;333.70;2329.60;;;;;;4995426;28;20022;-76
2021/10/05 07:03:18;;;;;;;17.92;11.15;;;358.40;2329.60;;;;;;4995247;28;20057;-82
2021/10/05 07:05:45;;;;;;;17.55;10.05;;;358.50;2329.60;;;;;;4992558;28;20046;-84
2021/10/05 07:08:11;;;;;;;16.02;10.43;;;358.70;2329.60;;;;;;4995526;28;20050;-83
2021/10/05 07:10:39;;;;;;;18.33;10.95;;;358.80;2329.60;;;;;;4995862;28;20093;-82
2021/10/05 07:13:05;;;;;;;16.75;9.73;;;358.90;2329.60;;;;;;4995361;28;20039;-83
2021/10/05 07:15:31;;;;;;;19.63;11.38;;;359.00;2329.60;;;;;;4990991;28;20022;-83
2021/10/05 07:17:57;;;;;;;17.17;11.43;;;359.20;2329.60;;;;;;4996390;28;20018;-76
2021/10/05 07:20:24;;;;;;;16.17;10.68;;;359.30;2329.60;;;;;;4995508;28;20025;-75
2021/10/05 07:22:50;;;;;;;17.35;10.10;;;384.00;2329.60;;;;;;4995109;28;20094;-76
2021/10/05 07:25:16;;;;;;;16.38;9.73;;;384.20;2329.60;;;;;;4995290;28;20034;-79
2021/10/05 07:27:50;;;;;;;16.83;10.98;;;384.30;2329.60;;;;;;4994540;28;20026;-74
2021/10/05 07:30:17;;;;;;;21.50;10.93;;;384.40;2329.60;;;;;;4994882;28;20041;-77
2021/10/05 07:32:43;;;;;;;18.98;10.82;;;384.50;2329.60;;;;;;4994929;28;20041;-76
2021/10/05 07:35:08;;;;;;;18.08;11.02;;;384.70;2329.60;;;;;;4995017;28;20055;-82
2021/10/05 07:37:34;;;;;;;13.15;9.25;;;384.80;2329.60;;;;;;4994906;28;20034;-75
2021/10/05 07:40:00;;;;;;;18.23;10.05;;;384.90;2329.60;;;;;;4995363;28;20030;-78
2021/10/05 07:42:26;;;;;;;19.38;10.23;;;409.70;2355.20;;;;;;4994760;28;20018;-76
2021/10/05 07:44:52;;;;;;;14.73;10.52;;;409.90;2355.20;;;;;;4993590;28;20443;-82
2021/10/05 07:47:17;;;;;;;16.75;9.38;;;410.00;2355.20;;;;;;4994158;28;20081;-75
2021/10/05 07:49:43;;;;;;;15.80;9.50;;;410.20;2355.20;;;;;;4993523;28;20030;-77
2021/10/05 07:52:09;;;;;;;15.05;10.85;;;410.30;2355.20;;;;;;4993230;28;20072;-77
2021/10/05 07:54:36;;;;;;;16.23;10.45;;;410.40;2355.20;;;;;;4994902;28;20076;-78
2021/10/05 07:57:04;;;;;;;17.60;10.80;;;410.50;2355.20;;;;;;4994223;28;20042;-78
2021/10/05 07:59:30;;;;;;;17.65;11.02;;;435.30;2355.20;;;;;;4994186;28;20026;-75
2021/10/05 08:01:56;;;;;;;17.90;10.43;;;435.40;2329.60;;;;;;4994240;28;20072;-78
2021/10/05 08:04:21;;;;;;;13.30;8.20;;;435.50;2355.20;;;;;;4994520;28;20065;-83
2021/10/05 08:06:47;;;;;;;18.52;9.30;;;435.70;2329.60;;;;;;4994674;28;20034;-82
2021/10/05 08:09:14;;;;;;;14.80;9.10;;;435.80;2252.80;;;;;;4994499;28;20430;-81
2021/10/05 08:11:41;;;;;;;20.10;10.68;;;435.90;2329.60;;;;;;4994500;28;20026;-82
2021/10/05 08:14:07;;;;;;;16.98;9.98;;;436.10;2278.40;;;;;;4994296;28;20533;-82
2021/10/05 08:16:33;;;;;;;19.83;9.73;;;460.80;2304.00;;;;;;4994553;28;20022;-81
2021/10/05 08:19:00;;;;;;;13.27;9.45;;;461.10;2201.60;;;;;;4994520;28;20157;-82
2021/10/05 08:21:27;;;;;;;15.60;9.07;;;461.10;2176.00;;;;;;4994427;28;20029;-81
2021/10/05 08:23:53;;;;;;;13.80;8.75;;;461.30;2176.00;;;;;;4994041;28;20056;-82
2021/10/05 08:26:20;;;;;;;15.13;9.77;;;461.50;2150.40;;;;;;4994521;28;20014;-82
2021/10/05 08:28:46;;;;;;;19.85;11.27;;;461.60;2099.20;;;;;;4994534;28;20027;-82
2021/10/05 08:31:12;;;;;;;13.95;8.77;;;461.70;1945.60;;;;;;4994857;28;20054;-83
2021/10/05 08:33:38;;;;;;;12.27;8.77;;;486.40;1971.20;;;;;;4993189;28;20135;-83
2021/10/05 08:36:04;;;;;;;17.48;9.13;;;486.50;1894.40;;;;;;4994302;28;20054;-83
2021/10/05 08:38:30;;;;;;;12.95;9.77;;;486.60;1843.20;;;;;;4994169;28;20105;-83
2021/10/05 08:40:56;;;;;;;17.95;11.50;;;486.70;1894.40;;;;;;4994475;28;20026;-86
2021/10/05 08:43:24;;;;;;;15.07;9.70;;;486.70;1945.60;;;;;;4993223;28;20023;-81
2021/10/05 08:45:50;;;;;;;16.23;9.18;;;486.90;1945.60;;;;;;4993979;28;20014;-81
2021/10/05 08:48:16;;;;;;;15.70;10.27;;;487.00;1868.80;;;;;;4993665;28;20073;-81
2021/10/05 08:50:43;;;;;;;16.63;9.93;;;487.20;1868.80;;;;;;4993785;28;20031;-80
2021/10/05 08:53:09;;;;;;;14.00;8.95;;;487.30;1817.60;;;;;;4992521;28;20023;-79
2021/10/05 08:55:35;;;;;;;13.40;9.02;;;512.00;1843.20;;;;;;4994465;28;20547;-79
2021/10/05 08:58:01;;;;;;;15.23;9.68;;;512.10;1792.00;;;;;;4997575;28;20101;-80
2021/10/05 09:00:37;;;;;;;14.35;8.30;;;512.20;1843.20;;;;;;4997959;28;20049;-81
2021/10/05 09:03:03;;;;;;;14.25;9.48;;;512.40;1792.00;;;;;;4997486;28;20022;-83
2021/10/05 09:05:29;;;;;;;17.95;9.95;;;512.60;1740.80;;;;;;4997534;28;20118;-81
2021/10/05 09:07:57;;;;;;;14.43;10.40;;;512.80;1740.80;;;;;;4997885;28;20046;-80
2021/10/05 09:10:26;;;;;;;12.65;9.25;;;512.80;1740.80;;;;;;4997777;28;20019;-82
2021/10/05 09:12:52;;;;;;;15.25;8.80;;;537.60;1792.00;;;;;;4997365;28;20030;-80
2021/10/05 09:15:20;;;;;;;13.07;9.00;;;537.70;1766.40;;;;;;4997387;28;20475;-78
2021/10/05 09:17:53;;;;;;;13.52;9.32;;;537.80;1766.40;;;;;;4997564;28;20026;-83
2021/10/05 09:20:25;;;;;;;12.50;7.85;;;538.00;1766.40;;;;;;4997947;28;20038;-83
2021/10/05 09:23:02;;;;;;;12.07;8.32;;;538.20;1740.80;;;;;;4997840;28;20037;-83
2021/10/05 09:25:41;;;;;;;15.55;10.93;;;538.40;1740.80;;;;;;4997214;28;20034;-81
2021/10/05 09:28:20;;;;;;;12.57;7.95;;;538.50;1715.20;;;;;;4997534;28;20053;-84
2021/10/05 09:31:03;;;;;;;11.75;7.90;;;563.30;1664.00;;;;;;4997705;28;20030;-75
2021/10/05 09:33:29;;;;;;;12.13;7.97;;;563.40;1689.60;;;;;;4996658;28;20034;-84
2021/10/05 09:35:56;;;;;;;19.92;11.45;;;563.60;1664.00;;;;;;4996088;28;20507;-77
2021/10/05 09:38:23;;;;;;;14.82;8.93;;;563.60;1612.80;;;;;;4998234;28;20034;-84
2021/10/05 09:41:08;;;;;;;13.50;7.80;;;563.70;1612.80;;;;;;4997938;28;20061;-82
2021/10/05 09:43:35;;;;;;;12.35;7.47;;;563.80;1587.20;;;;;;4998243;28;20026;-85
2021/10/05 09:46:19;;;;;;;13.73;7.63;;;563.80;1638.40;;;;;;4998434;28;20019;-82
2021/10/05 09:48:45;;;;;;;9.73;7.07;;;564.00;1612.80;;;;;;4997675;28;20035;-84
2021/10/05 09:51:16;;;;;;;12.52;7.90;;;564.10;1638.40;;;;;;4997465;28;20038;-83
2021/10/05 09:53:43;;;;;;;10.45;5.80;;;588.80;1612.80;;;;;;4997832;28;20054;-84
2021/10/05 09:56:12;;;;;;;11.95;6.72;;;588.90;1561.60;;;;;;4997374;28;20025;-85
2021/10/05 09:58:38;;;;;;;11.48;6.57;;;589.00;1561.60;;;;;;4997384;28;20486;-86
2021/10/05 10:01:04;;;;;;;12.25;5.78;;;589.10;1484.80;;;;;;4997220;28;20026;-85
2021/10/05 10:03:31;;;;;;;13.48;6.70;;;589.20;1459.20;;;;;;4997266;28;20042;-84
2021/10/05 10:05:59;;;;;;;12.90;7.40;;;589.30;1433.60;;;;;;4995940;28;20105;-84
2021/10/05 10:08:25;;;;;;;7.55;6.20;;;589.50;1459.20;;;;;;4996378;28;20026;-83
2021/10/05 10:10:54;;;;;;;11.93;7.00;;;589.70;1459.20;;;;;;4997018;28;20026;-85
2021/10/05 10:13:20;;;;;;;11.15;6.28;;;614.40;1433.60;;;;;;4996507;28;20109;-82
2021/10/05 10:15:48;;;;;;;9.15;6.13;;;614.50;1356.80;;;;;;4996881;28;20494;-85
2021/10/05 10:18:15;;;;;;;10.38;6.18;;;614.40;1382.40;;;;;;4996974;28;20026;-85
2021/10/05 10:20:54;;;;;;;8.40;5.65;;;614.50;1356.80;;;;;;4997050;28;20030;-85
2021/10/05 10:23:25;;;;;;;8.00;6.22;;;614.70;1356.80;;;;;;4996855;28;20030;-82
2021/10/05 10:25:57;;;;;;;10.10;6.45;;;614.70;1356.80;;;;;;4996968;28;20406;-86
2021/10/05 10:28:28;;;;;;;;;;;614.80;1356.80;;;;;;4996888;28;20116;-86
2021/10/05 10:30:57;;;;;;;14.43;8.18;;;614.80;1331.20;;;;;;4996687;28;19909;-86
2021/10/05 10:33:24;;;;;;;10.80;5.88;;;615.00;1331.20;;;;;;4996796;28;20433;-85
2021/10/05 10:35:56;;;;;;;11.65;6.72;;;615.10;1305.60;;;;;;4996496;28;20051;-84
2021/10/05 10:38:31;;;;;;;9.32;6.38;;;615.20;1305.60;;;;;;4996673;28;20038;-85
2021/10/05 10:40:58;;;;;;;11.45;6.47;;;615.10;1305.60;;;;;;4996749;28;20467;-85
2021/10/05 10:43:27;;;;;;;10.13;6.13;;;615.30;1305.60;;;;;;4996600;28;20030;-84
2021/10/05 10:45:57;;;;;;;7.88;6.25;;;640.00;1305.60;;;;;;4996832;28;20053;-84
2021/10/05 10:48:34;;;;;;;9.38;6.05;;;640.00;1305.60;;;;;;4996579;28;20022;-85
2021/10/05 10:51:16;;;;;;;6.65;5.50;;;640.00;1254.40;;;;;;4996834;28;20412;-85
2021/10/05 10:53:44;;;;;;;8.50;6.07;;;615.30;1305.60;;;;;;4996899;28;20042;-86
2021/10/05 10:56:13;;;;;;;13.80;6.40;;;640.00;1228.80;;;;;;4996775;28;20048;-82
2021/10/05 10:58:44;;;;;;;10.23;5.47;;;640.10;1228.80;;;;;;4996424;28;20029;-86
2021/10/05 11:01:14;;;;;;;9.77;6.57;;;640.10;1280.00;;;;;;4996617;28;20031;-85
2021/10/05 11:03:41;;;;;;;8.57;5.65;;;640.20;1280.00;;;;;;4996824;28;20026;-86
2021/10/05 11:06:17;;;;;;;9.63;6.13;;;640.20;1280.00;;;;;;4999345;28;20463;-85
2021/10/05 11:08:54;;;;;;;11.77;5.72;;;640.40;1280.00;;;;;;5002569;28;20541;-86
2021/10/05 11:11:34;;;;;;;10.27;6.50;;;640.60;1254.40;;;;;;5000056;28;20030;-85
2021/10/05 11:14:03;;;;;;;7.38;5.85;;;640.50;1254.40;;;;;;5001070;28;20034;-86
2021/10/05 11:16:31;;;;;;;11.07;5.40;;;640.60;1280.00;;;;;;5002441;28;20538;-82
2021/10/05 11:19:09;;;;;;;9.13;5.68;;;640.60;1254.40;;;;;;5001684;28;20552;-86
2021/10/05 11:21:39;;;;;;;10.25;6.57;;;640.90;1254.40;;;;;;5005418;28;20086;-85
2021/10/05 11:24:06;;;;;;;7.95;5.70;;;665.60;1305.60;;;;;;5008718;28;20030;-80
2021/10/05 11:26:34;;;;;;;7.72;5.72;;;665.60;1254.40;;;;;;5014732;28;20508;-82
2021/10/05 11:29:02;;;;;;;8.30;6.40;;;640.90;1228.80;;;;;;5017283;28;20097;-84
2021/10/05 11:31:43;;;;;;;11.23;6.03;;;665.60;1280.00;;;;;;5015365;28;20029;-85
2021/10/05 11:34:09;;;;;;;10.50;6.82;;;665.90;1254.40;;;;;;5012230;28;20060;-76
2021/10/05 11:36:36;;;;;;;9.30;5.88;;;665.80;1228.80;;;;;;5015773;28;20056;-79
2021/10/05 11:39:04;;;;;;;8.05;5.90;;;665.80;1254.40;;;;;;5016981;28;20121;-78
2021/10/05 11:41:52;;;;;;;10.63;5.97;;;666.00;1254.40;;;;;;5018480;28;20022;-77
2021/10/05 11:44:21;;;;;;;12.18;6.63;;;666.00;1254.40;;;;;;5014611;28;20073;-86
2021/10/05 11:46:56;;;;;;;10.13;5.78;;;666.00;1254.40;;;;;;5016641;28;20030;-77
2021/10/05 11:49:23;;;;;;;9.00;5.22;;;665.90;1254.40;;;;;;5017322;28;20086;-76
2021/10/05 11:51:51;;;;;;;11.05;5.88;;;666.00;1228.80;;;;;;5013347;28;20038;-76
2021/10/05 11:54:19;;;;;;;12.05;6.60;;;665.90;1228.80;;;;;;5014373;28;20022;-77
2021/10/05 11:56:45;;;;;;;9.93;5.90;;;665.90;1228.80;;;;;;5014586;28;20054;-82
2021/10/05 11:59:27;;;;;;;9.05;5.90;;;666.00;1228.80;;;;;;4997624;28;20029;-81
2021/10/05 12:02:18;;;;;;;12.60;6.18;;;666.00;1228.80;;;;;;4996572;28;20471;-81
2021/10/05 12:04:49;;;;;;;9.63;6.45;;;666.00;1228.80;;;;;;4993981;28;20036;-82